createdAt,value
2023-04-26T00:02:00.616Z,98449.63
2023-04-26T00:04:29.202Z,98453.66
2023-04-26T00:06:56.930Z,98445.31
2023-04-26T00:09:23.980Z,98454.81
2023-04-26T00:11:51.101Z,98450.84
2023-04-26T00:14:18.328Z,98427.72
2023-04-26T00:16:45.451Z,98432.38
2023-04-26T00:19:12.768Z,98435.53
2023-04-26T00:21:40.191Z,98448.16
2023-04-26T00:24:07.861Z,98442.50
2023-04-26T00:26:35.070Z,98454.50
2023-04-26T00:29:03.942Z,98440.19
2023-04-26T00:31:31.151Z,98447.97
2023-04-26T00:33:58.378Z,98490.06
2023-04-26T00:36:26.317Z,98497.69
2023-04-26T00:38:53.680Z,98520.84
2023-04-26T00:41:22.027Z,98523.81
2023-04-26T00:43:49.087Z,98533.84
2023-04-26T00:46:16.286Z,98536.00
2023-04-26T00:48:44.956Z,98535.66
2023-04-26T00:51:12.503Z,98491.03
2023-04-26T00:53:39.786Z,98474.72
2023-04-26T00:56:07.954Z,98506.63
2023-04-26T00:58:36.526Z,98518.38
2023-04-26T01:01:04.420Z,98546.03
2023-04-26T01:03:31.726Z,98560.69
2023-04-26T01:05:59.421Z,98617.28
2023-04-26T01:08:26.878Z,98881.44
2023-04-26T01:10:54.556Z,98895.44
2023-04-26T01:13:21.849Z,98901.03
2023-04-26T01:15:49.173Z,98891.38
2023-04-26T01:18:16.230Z,98865.75
2023-04-26T01:20:43.344Z,98888.28
2023-04-26T01:23:11.670Z,98886.75
2023-04-26T01:25:39.206Z,98890.25
2023-04-26T01:28:06.446Z,98892.25
2023-04-26T01:30:33.526Z,98882.53
2023-04-26T01:33:03.630Z,98895.59
2023-04-26T01:35:30.780Z,98868.47
2023-04-26T01:37:57.874Z,98882.31
2023-04-26T01:40:24.941Z,98866.44
2023-04-26T01:42:51.970Z,98866.50
2023-04-26T01:45:19.037Z,98877.22
2023-04-26T01:48:04.644Z,98878.66
2023-04-26T01:50:33.048Z,98883.06
2023-04-26T01:53:00.106Z,98853.06
2023-04-26T01:55:27.188Z,98869.91
2023-04-26T01:57:54.247Z,98884.66
2023-04-26T02:00:21.383Z,98882.66
2023-04-26T02:02:49.697Z,98865.00
2023-04-26T02:05:16.900Z,98834.44
2023-04-26T02:07:43.988Z,98834.50
2023-04-26T02:10:11.113Z,98861.63
2023-04-26T02:12:38.262Z,98872.34
2023-04-26T02:15:06.251Z,98861.56
2023-04-26T02:17:34.790Z,98869.91
2023-04-26T02:20:01.923Z,98868.25
2023-04-26T02:22:29.706Z,98864.91
2023-04-26T02:24:56.787Z,98822.50
2023-04-26T02:27:27.867Z,98819.91
2023-04-26T02:29:55.340Z,98829.66
2023-04-26T02:32:22.449Z,98843.00
2023-04-26T02:34:49.726Z,98862.38
2023-04-26T02:37:16.889Z,98858.06
2023-04-26T02:39:44.497Z,98870.75
2023-04-26T02:42:11.683Z,98856.81
2023-04-26T02:44:39.688Z,98841.94
2023-04-26T02:47:07.252Z,98830.75
2023-04-26T02:49:34.498Z,98851.19
2023-04-26T02:52:01.831Z,98840.06
2023-04-26T02:57:27.125Z,98813.19
2023-04-26T02:59:55.458Z,98845.44
2023-04-26T03:02:22.832Z,98863.03
2023-04-26T03:04:50.483Z,98848.03
2023-04-26T03:07:17.800Z,98882.44
2023-04-26T03:09:44.965Z,98910.75
2023-04-26T03:12:13.808Z,98916.84
2023-04-26T03:14:40.912Z,98928.88
2023-04-26T03:17:08.383Z,98873.75
2023-04-26T03:19:36.539Z,98875.75
2023-04-26T03:22:05.775Z,98908.81
2023-04-26T03:24:33.309Z,98918.00
2023-04-26T03:27:00.460Z,98919.50
2023-04-26T03:29:27.600Z,98960.78
2023-04-26T03:31:54.764Z,98931.53
2023-04-26T03:34:22.045Z,98940.06
2023-04-26T03:36:49.206Z,98920.75
2023-04-26T03:39:16.534Z,98920.16
2023-04-26T03:41:43.598Z,98962.03
2023-04-26T03:44:13.017Z,98961.19
2023-04-26T03:46:40.289Z,98974.59
2023-04-26T03:49:07.392Z,98969.88
2023-04-26T03:51:34.456Z,98968.91
2023-04-26T03:54:01.627Z,98963.19
2023-04-26T03:56:28.733Z,98995.44
2023-04-26T03:58:56.862Z,98986.63
2023-04-26T04:01:24.885Z,98974.66
2023-04-26T04:03:52.375Z,98980.50
2023-04-26T04:06:19.757Z,99033.84
2023-04-26T04:08:46.851Z,99057.97
2023-04-26T04:11:13.995Z,99029.94
2023-04-26T04:13:41.713Z,99045.00
2023-04-26T04:16:10.328Z,99055.75
2023-04-26T04:18:37.558Z,99052.28
2023-04-26T04:21:04.651Z,99060.91
2023-04-26T04:23:31.875Z,99070.97
2023-04-26T04:26:00.041Z,99061.47
2023-04-26T04:28:27.450Z,99052.53
2023-04-26T04:30:57.053Z,99065.09
2023-04-26T04:33:25.727Z,99081.88
2023-04-26T04:35:52.835Z,99074.03
2023-04-26T04:38:20.023Z,99090.66
2023-04-26T04:40:50.331Z,99093.03
2023-04-26T04:43:18.273Z,99087.16
2023-04-26T04:45:46.411Z,99094.97
2023-04-26T04:48:13.569Z,99083.38
2023-04-26T04:50:42.088Z,99098.34
2023-04-26T04:53:09.262Z,99102.94
2023-04-26T04:55:37.806Z,99148.09
2023-04-26T04:58:04.851Z,99228.97
2023-04-26T05:00:32.992Z,99241.75
2023-04-26T05:03:20.235Z,99080.53
2023-04-26T05:05:47.759Z,99094.03
2023-04-26T05:08:15.485Z,99083.75
2023-04-26T05:10:42.622Z,99093.16
2023-04-26T05:13:10.037Z,99113.25
2023-04-26T05:15:38.362Z,99132.16
2023-04-26T05:18:05.658Z,99147.50
2023-04-26T05:20:32.975Z,99152.25
2023-04-26T05:23:00.554Z,99169.03
2023-04-26T05:25:27.822Z,99164.56
2023-04-26T05:28:00.927Z,99181.75
2023-04-26T05:30:37.175Z,99214.59
2023-04-26T05:33:19.450Z,99238.78
2023-04-26T05:35:57.941Z,99241.72
2023-04-26T05:38:25.886Z,99272.63
2023-04-26T05:40:52.992Z,99291.78
2023-04-26T05:43:20.177Z,99302.41
2023-04-26T05:45:51.019Z,99300.47
2023-04-26T05:48:20.737Z,99285.09
2023-04-26T05:50:48.158Z,99310.25
2023-04-26T05:53:15.781Z,99320.34
2023-04-26T05:55:43.135Z,99320.28
2023-04-26T05:58:11.023Z,99346.44
2023-04-26T06:00:39.325Z,99313.00
2023-04-26T06:03:07.620Z,99323.06
2023-04-26T06:05:38.181Z,99328.88
2023-04-26T06:08:05.705Z,99364.59
2023-04-26T06:10:32.851Z,99376.56
2023-04-26T06:12:59.948Z,99339.53
2023-04-26T06:15:29.156Z,99357.09
2023-04-26T06:17:56.309Z,99430.91
2023-04-26T06:20:23.415Z,99446.34
2023-04-26T06:22:50.654Z,99405.88
2023-04-26T06:25:18.530Z,99434.66
2023-04-26T06:27:45.894Z,99425.16
2023-04-26T06:30:13.226Z,99360.66
2023-04-26T06:32:44.121Z,99286.19
2023-04-26T06:35:11.386Z,99315.19
2023-04-26T06:37:39.561Z,99308.66
2023-04-26T06:40:09.583Z,99211.34
2023-04-26T06:42:37.457Z,99193.94
2023-04-26T06:45:23.006Z,99171.47
2023-04-26T06:47:53.341Z,99140.16
2023-04-26T06:50:24.047Z,99031.75
2023-04-26T06:52:51.520Z,98986.97
2023-04-26T06:55:18.991Z,99053.13
2023-04-26T06:57:46.088Z,98989.31
2023-04-26T07:00:13.750Z,98875.06
2023-04-26T07:02:41.343Z,98727.25
2023-04-26T07:05:08.946Z,98615.75
2023-04-26T07:07:36.131Z,98520.38
2023-04-26T07:10:03.822Z,98436.59
2023-04-26T07:12:31.297Z,98208.44
2023-04-26T07:14:58.623Z,98098.31
2023-04-26T07:17:25.685Z,97924.16
2023-04-26T07:19:54.438Z,97947.88
2023-04-26T07:22:23.519Z,97667.16
2023-04-26T07:24:50.707Z,97604.88
2023-04-26T07:27:17.743Z,97421.31
2023-04-26T07:29:44.780Z,97389.66
2023-04-26T07:32:11.817Z,97232.72
2023-04-26T07:34:38.926Z,97129.72
2023-04-26T07:37:05.966Z,97041.56
2023-04-26T07:39:33.015Z,96959.03
2023-04-26T07:42:00.280Z,96809.66
2023-04-26T07:44:27.457Z,96784.59
2023-04-26T07:46:54.617Z,96580.47
2023-04-26T07:49:21.740Z,96559.28
2023-04-26T07:51:49.089Z,96461.53
2023-04-26T07:54:16.171Z,96355.22
2023-04-26T07:56:43.263Z,96331.91
2023-04-26T07:59:10.376Z,96240.75
2023-04-26T08:01:37.752Z,96255.34
2023-04-26T08:04:05.371Z,96220.91
2023-04-26T08:06:33.239Z,96198.75
2023-04-26T08:09:00.379Z,96122.00
2023-04-26T08:11:27.529Z,96031.69
2023-04-26T08:13:54.896Z,95984.66
2023-04-26T08:16:22.168Z,95947.16
2023-04-26T08:18:49.228Z,95911.56
2023-04-26T08:21:16.290Z,95852.38
2023-04-26T08:23:43.330Z,95900.84
2023-04-26T08:26:10.471Z,95900.50
2023-04-26T08:28:38.076Z,95886.41
2023-04-26T08:31:05.350Z,95889.69
2023-04-26T08:33:32.600Z,95861.22
2023-04-26T08:36:01.306Z,95855.03
2023-04-26T08:38:29.649Z,95871.84
2023-04-26T08:40:58.662Z,95807.13
2023-04-26T08:43:27.491Z,95763.06
2023-04-26T08:45:54.923Z,95659.66
2023-04-26T08:48:22.128Z,95650.97
2023-04-26T08:50:49.392Z,95613.28
2023-04-26T08:53:18.145Z,95600.53
2023-04-26T08:55:49.351Z,95576.69
2023-04-26T08:58:19.843Z,95562.72
2023-04-26T09:00:47.328Z,95565.44
2023-04-26T09:03:14.636Z,95586.81
2023-04-26T09:05:45.235Z,95567.13
2023-04-26T09:08:16.121Z,95543.41
2023-04-26T09:10:43.416Z,95551.94
2023-04-26T09:13:11.422Z,95560.19
2023-04-26T09:15:38.871Z,95554.75
2023-04-26T09:18:22.067Z,95574.19
2023-04-26T09:21:02.684Z,95581.44
2023-04-26T09:23:29.758Z,95525.13
2023-04-26T09:25:56.807Z,95524.50
2023-04-26T09:28:24.166Z,95496.28
2023-04-26T09:30:51.200Z,95436.03
2023-04-26T09:33:19.537Z,95393.44
2023-04-26T09:35:46.852Z,95353.00
2023-04-26T09:38:15.185Z,95382.13
2023-04-26T09:40:43.471Z,95392.88
2023-04-26T09:43:11.707Z,95393.53
2023-04-26T09:45:51.913Z,95419.06
2023-04-26T09:48:22.931Z,95407.59
2023-04-26T09:50:52.541Z,95411.19
2023-04-26T09:53:26.545Z,95459.91
2023-04-26T09:55:57.013Z,95449.13
2023-04-26T09:58:24.317Z,95466.72
2023-04-26T10:00:51.741Z,95469.00
2023-04-26T10:03:23.215Z,95492.72
2023-04-26T10:05:50.743Z,95488.13
2023-04-26T10:08:18.532Z,95513.22
2023-04-26T10:10:46.069Z,95511.66
2023-04-26T10:13:13.595Z,95508.47
2023-04-26T10:15:41.495Z,95526.56
2023-04-26T10:18:08.704Z,95561.19
2023-04-26T10:20:40.271Z,95589.63
2023-04-26T10:23:12.128Z,95627.47
2023-04-26T10:25:40.518Z,95634.56
2023-04-26T10:28:08.024Z,95653.47
2023-04-26T10:30:53.846Z,95665.97
2023-04-26T10:33:22.028Z,95680.63
2023-04-26T10:36:01.454Z,95712.50
2023-04-26T10:38:28.543Z,95723.94
2023-04-26T10:40:56.593Z,95723.16
2023-04-26T10:43:29.825Z,95706.94
2023-04-26T10:45:56.997Z,95717.50
2023-04-26T10:48:31.450Z,95708.78
2023-04-26T10:51:01.548Z,95720.41
2023-04-26T10:53:33.350Z,95723.94
2023-04-26T10:56:00.512Z,95747.38
2023-04-26T10:58:34.976Z,95747.72
2023-04-26T11:01:17.452Z,95765.47
2023-04-26T11:04:04.581Z,95781.19
2023-04-26T11:06:51.175Z,95789.34
2023-04-26T11:09:37.098Z,95796.84
2023-04-26T11:12:05.408Z,95810.09
2023-04-26T11:14:35.800Z,95830.25
2023-04-26T11:17:06.428Z,95820.56
2023-04-26T11:19:33.870Z,95826.78
2023-04-26T11:22:01.701Z,95827.94
2023-04-26T11:24:30.933Z,95844.16
2023-04-26T11:26:58.238Z,95852.75
2023-04-26T11:29:25.804Z,95862.94
2023-04-26T11:31:53.665Z,95867.94
2023-04-26T11:34:31.494Z,95874.88
2023-04-26T11:36:58.586Z,95884.69
2023-04-26T11:39:25.785Z,95874.63
2023-04-26T11:41:56.668Z,95878.84
2023-04-26T11:44:23.761Z,95879.59
2023-04-26T11:46:51.498Z,95872.53
2023-04-26T11:49:18.814Z,95861.59
2023-04-26T11:51:48.059Z,95851.97
2023-04-26T11:54:47.498Z,95856.84
2023-04-26T11:57:17.252Z,95852.59
2023-04-26T11:59:45.784Z,95837.22
2023-04-26T12:02:13.220Z,95829.75
2023-04-26T12:04:41.314Z,95837.16
2023-04-26T12:07:09.572Z,95842.28
2023-04-26T12:09:40.254Z,95841.88
2023-04-26T12:12:07.407Z,95841.78
2023-04-26T12:14:35.151Z,95839.47
2023-04-26T12:17:03.181Z,95825.66
2023-04-26T12:19:33.898Z,95814.38
2023-04-26T12:22:01.167Z,95797.09
2023-04-26T12:24:36.939Z,95789.06
2023-04-26T12:27:06.629Z,95768.13
2023-04-26T12:29:34.310Z,95749.94
2023-04-26T12:32:02.246Z,95749.81
2023-04-26T12:34:29.664Z,95737.31
2023-04-26T12:36:56.853Z,95729.00
2023-04-26T12:39:23.925Z,95728.91
2023-04-26T12:41:51.061Z,95731.13
2023-04-26T12:44:20.431Z,95727.88
2023-04-26T12:46:49.170Z,95727.31
2023-04-26T12:49:16.344Z,95730.06
2023-04-26T12:51:43.394Z,95731.69
2023-04-26T12:54:10.466Z,95734.50
2023-04-26T12:56:43.498Z,95731.00
2023-04-26T12:59:10.771Z,95744.78
2023-04-26T13:01:37.894Z,95759.31
2023-04-26T13:04:05.955Z,95778.47
2023-04-26T13:06:33.976Z,95773.94
2023-04-26T13:09:01.703Z,95777.09
2023-04-26T13:11:28.905Z,95777.69
2023-04-26T13:13:55.998Z,95774.50
2023-04-26T13:16:23.293Z,95775.78
2023-04-26T13:18:50.424Z,95774.16
2023-04-26T13:21:17.501Z,95780.47
2023-04-26T13:23:46.218Z,95782.97
2023-04-26T13:26:15.266Z,95780.13
2023-04-26T13:28:42.420Z,95769.88
2023-04-26T13:31:09.523Z,95774.19
2023-04-26T13:33:36.615Z,95770.00
2023-04-26T13:36:03.827Z,95767.78
2023-04-26T13:38:32.356Z,95768.25
2023-04-26T13:41:00.061Z,95767.47
2023-04-26T13:43:27.171Z,95770.66
2023-04-26T13:45:54.222Z,95767.50
2023-04-26T13:48:21.457Z,95769.56
2023-04-26T13:50:48.500Z,95779.34
2023-04-26T13:53:15.651Z,95784.91
2023-04-26T13:55:42.745Z,95794.53
2023-04-26T13:58:10.283Z,95794.03
2023-04-26T14:00:37.365Z,95800.28
2023-04-26T14:03:04.616Z,95799.84
2023-04-26T14:05:31.983Z,95809.38
2023-04-26T14:07:59.001Z,95804.41
2023-04-26T14:10:26.258Z,95802.59
2023-04-26T14:12:54.832Z,95799.31
2023-04-26T14:15:22.557Z,95806.91
2023-04-26T14:17:50.192Z,95805.41
2023-04-26T14:20:17.293Z,95812.88
2023-04-26T14:22:44.293Z,95806.91
2023-04-26T14:25:11.551Z,95809.16
2023-04-26T14:27:39.509Z,95812.38
2023-04-26T14:30:07.168Z,95816.75
2023-04-26T14:32:34.290Z,95817.13
2023-04-26T14:35:01.325Z,95823.69
2023-04-26T14:37:28.540Z,95820.16
2023-04-26T14:39:55.592Z,95822.34
2023-04-26T14:42:23.022Z,95829.19
2023-04-26T14:44:50.076Z,95832.34
2023-04-26T14:47:17.165Z,95832.97
2023-04-26T14:49:44.204Z,95830.31
2023-04-26T14:52:11.343Z,95828.16
2023-04-26T14:54:38.840Z,95830.00
2023-04-26T14:57:05.912Z,95829.78
2023-04-26T14:59:33.208Z,95824.88
2023-04-26T15:02:00.619Z,95826.34
2023-04-26T15:04:27.941Z,95836.53
2023-04-26T15:06:56.597Z,95836.31
2023-04-26T15:09:23.919Z,95829.78
2023-04-26T15:11:50.952Z,95828.75
2023-04-26T15:14:18.019Z,95841.16
2023-04-26T15:16:45.206Z,95841.69
2023-04-26T15:19:12.366Z,95845.22
2023-04-26T15:21:39.478Z,95850.88
2023-04-26T15:24:07.733Z,95846.81
2023-04-26T15:26:34.870Z,95849.25
2023-04-26T15:29:01.995Z,95832.56
2023-04-26T15:31:29.158Z,95856.72
2023-04-26T15:33:58.976Z,95853.78
2023-04-26T15:36:26.212Z,95852.69
2023-04-26T15:38:53.299Z,95849.50
2023-04-26T15:41:20.480Z,95844.13
2023-04-26T15:43:47.545Z,95846.00
2023-04-26T15:46:15.187Z,95850.56
2023-04-26T15:48:42.299Z,95840.06
2023-04-26T15:51:09.322Z,95849.19
2023-04-26T15:53:41.226Z,95852.41
2023-04-26T15:56:14.375Z,95852.66
2023-04-26T15:58:43.211Z,95857.78
2023-04-26T16:01:10.465Z,95864.75
2023-04-26T16:03:37.761Z,95861.47
2023-04-26T16:06:05.431Z,95866.84
2023-04-26T16:08:39.907Z,95848.03
2023-04-26T16:11:07.835Z,95854.50
2023-04-26T16:13:34.942Z,95849.69
2023-04-26T16:16:02.146Z,95852.41
2023-04-26T16:18:29.282Z,95852.06
2023-04-26T16:21:03.091Z,95846.97
2023-04-26T16:23:30.198Z,95842.19
2023-04-26T16:25:57.258Z,95849.16
2023-04-26T16:28:24.413Z,95842.22
2023-04-26T16:30:51.622Z,95844.06
2023-04-26T16:33:21.283Z,95836.31
2023-04-26T16:35:50.480Z,95846.75
2023-04-26T16:38:17.799Z,95845.13
2023-04-26T16:40:44.862Z,95839.47
2023-04-26T16:43:14.363Z,95846.97
2023-04-26T16:45:41.505Z,95846.91
2023-04-26T16:48:08.681Z,95846.09
2023-04-26T16:50:35.815Z,95838.06
2023-04-26T16:53:03.021Z,95843.16
2023-04-26T16:55:30.157Z,95855.22
2023-04-26T16:57:57.504Z,95856.81
2023-04-26T17:00:24.557Z,95853.78
2023-04-26T17:02:51.646Z,95854.28
2023-04-26T17:05:18.935Z,95857.97
2023-04-26T17:07:46.188Z,95859.00
2023-04-26T17:10:13.338Z,95872.16
2023-04-26T17:12:40.467Z,95882.59
2023-04-26T17:15:08.554Z,95878.34
2023-04-26T17:17:35.855Z,95877.81
2023-04-26T17:20:06.325Z,95881.03
2023-04-26T17:22:33.460Z,95876.72
2023-04-26T17:25:00.654Z,95885.56
2023-04-26T17:27:27.709Z,95883.03
2023-04-26T17:29:54.802Z,95897.47
2023-04-26T17:32:22.062Z,95900.94
2023-04-26T17:34:49.105Z,95901.19
2023-04-26T17:37:16.270Z,95916.16
2023-04-26T17:39:43.291Z,95913.19
2023-04-26T17:42:10.400Z,95924.72
2023-04-26T17:44:37.642Z,95931.91
2023-04-26T17:47:06.008Z,95933.66
2023-04-26T17:49:33.107Z,95945.59
2023-04-26T17:52:00.168Z,95959.84
2023-04-26T17:54:27.626Z,95965.09
2023-04-26T17:56:54.871Z,95968.25
2023-04-26T17:59:21.946Z,95975.16
2023-04-26T18:01:49.163Z,95983.50
2023-04-26T18:04:16.408Z,95995.75
2023-04-26T18:06:44.016Z,96004.03
2023-04-26T18:09:11.187Z,96013.31
2023-04-26T18:11:38.243Z,96026.38
2023-04-26T18:14:05.380Z,96042.13
2023-04-26T18:16:32.476Z,96066.16
2023-04-26T18:18:59.524Z,96107.56
2023-04-26T18:21:26.696Z,96127.53
2023-04-26T18:23:53.755Z,96152.44
2023-04-26T18:26:20.823Z,96177.59
2023-04-26T18:28:47.874Z,96213.81
2023-04-26T18:31:15.007Z,96240.50
2023-04-26T18:33:42.056Z,96255.97
2023-04-26T18:36:09.297Z,96268.09
2023-04-26T18:38:36.309Z,96297.91
2023-04-26T18:41:03.374Z,96330.59
2023-04-26T18:43:30.864Z,96358.66
2023-04-26T18:45:58.875Z,96397.94
2023-04-26T18:48:25.988Z,96437.13
2023-04-26T18:50:54.107Z,96478.75
2023-04-26T18:53:24.015Z,96446.31
2023-04-26T18:55:52.383Z,96375.19
2023-04-26T18:58:19.532Z,96394.75
2023-04-26T19:00:49.643Z,96445.88
2023-04-26T19:03:16.874Z,96534.03
2023-04-26T19:05:44.084Z,96634.81
2023-04-26T19:08:11.726Z,96762.72
2023-04-26T19:10:38.754Z,96945.03
2023-04-26T19:13:05.832Z,97110.41
2023-04-26T19:15:32.990Z,97241.88
2023-04-26T19:18:00.089Z,97156.81
2023-04-26T19:20:27.199Z,97158.69
2023-04-26T19:22:54.535Z,97290.53
2023-04-26T19:25:23.106Z,97395.06
2023-04-26T19:27:50.554Z,97464.50
2023-04-26T19:30:17.638Z,97532.47
2023-04-26T19:32:44.663Z,97598.81
2023-04-26T19:35:11.784Z,97658.78
2023-04-26T19:37:38.968Z,97744.25
2023-04-26T19:40:07.179Z,97787.84
2023-04-26T19:42:34.235Z,97821.16
2023-04-26T19:45:04.398Z,97828.13
2023-04-26T19:47:32.092Z,97821.53
2023-04-26T19:49:59.584Z,97768.53
2023-04-26T19:52:26.746Z,97700.13
2023-04-26T19:54:54.329Z,97604.81
2023-04-26T19:57:21.961Z,97534.94
2023-04-26T19:59:49.104Z,97440.88
2023-04-26T20:02:16.604Z,97338.19
2023-04-26T20:04:44.607Z,97217.22
2023-04-26T20:07:11.667Z,97008.56
2023-04-26T20:09:38.747Z,96799.03
2023-04-26T20:12:06.059Z,96650.34
2023-04-26T20:14:33.624Z,96531.59
2023-04-26T20:17:02.497Z,96462.44
2023-04-26T20:19:29.857Z,96428.75
2023-04-26T20:21:56.906Z,96411.94
2023-04-26T20:24:29.307Z,96398.94
2023-04-26T20:26:56.700Z,96392.44
2023-04-26T20:29:24.039Z,96388.00
2023-04-26T20:31:51.304Z,96396.47
2023-04-26T20:34:18.432Z,96393.13
2023-04-26T20:36:45.528Z,96413.06
2023-04-26T20:39:12.550Z,96444.03
2023-04-26T20:41:39.833Z,96476.91
2023-04-26T20:44:07.792Z,96522.78
2023-04-26T20:46:35.283Z,96504.69
2023-04-26T20:49:02.743Z,96537.06
2023-04-26T20:51:29.845Z,96535.22
2023-04-26T20:53:56.940Z,96538.06
2023-04-26T20:56:24.021Z,96518.50
2023-04-26T20:58:51.077Z,96520.25
2023-04-26T21:01:18.154Z,96543.84
2023-04-26T21:03:45.559Z,96554.41
2023-04-26T21:06:12.784Z,96545.00
2023-04-26T21:08:41.020Z,96519.53
2023-04-26T21:11:08.085Z,96519.41
2023-04-26T21:13:35.134Z,96531.53
2023-04-26T21:16:02.710Z,96542.34
2023-04-26T21:18:29.962Z,96533.22
2023-04-26T21:20:56.990Z,96576.66
2023-04-26T21:23:24.070Z,96608.31
2023-04-26T21:25:51.103Z,96603.56
2023-04-26T21:28:18.937Z,96602.91
2023-04-26T21:30:46.054Z,96595.16
2023-04-26T21:33:13.252Z,96590.72
2023-04-26T21:35:40.359Z,96570.69
2023-04-26T21:38:07.412Z,96571.94
2023-04-26T21:40:34.541Z,96575.84
2023-04-26T21:43:05.257Z,96571.19
2023-04-26T21:45:32.888Z,96560.00
2023-04-26T21:47:59.982Z,96571.31
2023-04-26T21:50:27.116Z,96574.00
2023-04-26T21:52:54.207Z,96584.50
2023-04-26T21:55:21.324Z,96585.78
2023-04-26T21:57:48.365Z,96612.78
2023-04-26T22:00:16.653Z,96626.28
2023-04-26T22:02:43.816Z,96620.25
2023-04-26T22:05:11.406Z,96600.56
2023-04-26T22:07:38.450Z,96622.41
2023-04-26T22:10:05.685Z,96646.44
2023-04-26T22:12:32.713Z,96628.28
2023-04-26T22:14:59.780Z,96599.19
2023-04-26T22:17:26.984Z,96619.16
2023-04-26T22:19:55.533Z,96639.47
2023-04-26T22:22:22.597Z,96645.56
2023-04-26T22:24:50.373Z,96661.91
2023-04-26T22:27:17.576Z,96631.06
2023-04-26T22:29:44.905Z,96614.59
2023-04-26T22:32:12.115Z,96617.03
2023-04-26T22:34:41.043Z,96629.84
2023-04-26T22:37:20.310Z,96633.75
2023-04-26T22:39:47.752Z,96636.19
2023-04-26T22:42:14.896Z,96623.25
2023-04-26T22:44:42.210Z,96585.66
2023-04-26T22:47:09.232Z,96587.81
2023-04-26T22:49:36.309Z,96588.13
2023-04-26T22:52:09.739Z,96584.78
2023-04-26T22:54:38.982Z,96623.31
2023-04-26T22:57:07.394Z,96644.38
2023-04-26T22:59:34.583Z,96686.28
2023-04-26T23:02:01.995Z,96676.00
2023-04-26T23:04:29.085Z,96666.22
2023-04-26T23:06:56.284Z,96679.34
2023-04-26T23:09:23.459Z,96702.22
2023-04-26T23:11:51.055Z,96714.50
2023-04-26T23:14:19.770Z,96728.06
2023-04-26T23:16:47.006Z,96752.97
2023-04-26T23:19:14.390Z,96759.34
2023-04-26T23:21:41.731Z,96755.28
2023-04-26T23:24:08.763Z,96774.53
2023-04-26T23:26:35.889Z,96811.38
2023-04-26T23:29:02.942Z,96832.44
2023-04-26T23:31:30.005Z,96821.78
2023-04-26T23:33:57.115Z,96832.00
2023-04-26T23:36:24.269Z,96831.59
2023-04-26T23:38:51.465Z,96807.03
2023-04-26T23:41:18.490Z,96810.31
2023-04-26T23:43:45.850Z,96796.22
2023-04-26T23:46:12.917Z,96801.34
2023-04-26T23:48:40.050Z,96796.84
2023-04-26T23:51:07.238Z,96807.72
2023-04-26T23:53:34.422Z,96809.16
2023-04-26T23:56:01.542Z,96835.72
2023-04-26T23:58:29.528Z,96840.25
